Wan Hai 501 — S6AS7 — position and weather

sailwx.info

Track history (hours):
 
Tides and Currents Weather Stations Pressure Air Temp Water Temp Dewpoint Dewpoint Depression Visibility Wind Speed Wind Dir Waves Ship Positions

Wan Hai 501

Last reported at 2017-Mar-18 13:33 UTC. Time now 2017-Mar-26 03:31 UTC.
Position N 34°44' E 139°33'.

Length 269 m; draft 10.4 m.

Type: Cargo ship. MMSI: 563382000.

Date/timePositionNaut miles runAvg speedWind from/ knotsBaromVisibWave heightAir tempDewpointWater temp
2017-Mar-18 13:33N 34°44' E 139°33'1818.2
2017-Mar-18 12:33N 35°01' E 139°41'1515.0
2017-Mar-18 11:33N 35°16' E 139°46'1211.9
2017-Mar-18 10:33N 35°27' E 139°48'9 8.9
2017-Mar-18 09:33N 35°36' E 139°46'0 0.1
2017-Mar-18 08:28N 35°36' E 139°46'0 0.0
2017-Mar-18 07:28N 35°36' E 139°46'0 0.0
2017-Mar-18 06:31N 35°36' E 139°46'0 0.0
2017-Mar-18 05:31N 35°36' E 139°46'0 0.0
2017-Mar-18 04:31N 35°36' E 139°46'0 0.0
2017-Mar-18 03:31N 35°36' E 139°46'0 0.0
2017-Mar-18 02:31N 35°36' E 139°46'0 0.0
2017-Mar-18 01:31N 35°36' E 139°46'0 0.0
2017-Mar-18 00:31N 35°36' E 139°46'0 0.0
2017-Mar-17 23:31N 35°36' E 139°46'0 0.0
2017-Mar-17 22:28N 35°36' E 139°46'4 4.6
2017-Mar-17 21:33N 35°34' E 139°50'9 9.1
2017-Mar-17 20:33N 35°26' E 139°44'2 2.4
2017-Mar-17 19:31N 35°26' E 139°41'0 0.0
2017-Mar-17 18:31N 35°26' E 139°41'0 0.0
2017-Mar-17 17:31N 35°26' E 139°41'0 0.0
2017-Mar-17 16:31N 35°26' E 139°41'0 0.0
2017-Mar-17 15:31N 35°26' E 139°41'0 0.0
2017-Mar-17 14:31N 35°26' E 139°41'0 0.0
2017-Mar-17 13:31N 35°26' E 139°41'0 0.0
2017-Mar-17 12:31N 35°26' E 139°41'0 0.0
2017-Mar-17 11:31N 35°26' E 139°41'0 0.0
2017-Mar-17 10:31N 35°26' E 139°41'0 0.0
2017-Mar-17 09:31N 35°26' E 139°41'0 0.0
2017-Mar-17 08:31N 35°26' E 139°41'0 0.0
2017-Mar-17 07:31N 35°26' E 139°41'0 0.0
2017-Mar-17 06:31N 35°26' E 139°41'0 0.0
2017-Mar-17 05:31N 35°26' E 139°41'0 0.0
2017-Mar-17 04:31N 35°26' E 139°41'0 0.0
2017-Mar-17 03:31N 35°26' E 139°41'0 0.0
2017-Mar-17 02:31N 35°26' E 139°41'0 0.0
2017-Mar-17 01:31N 35°26' E 139°41'0 0.0
2017-Mar-17 00:31N 35°26' E 139°41'0 0.0
2017-Mar-16 23:31N 35°26' E 139°41'0 0.0
2017-Mar-16 22:31N 35°26' E 139°41'0 0.0
2017-Mar-16 21:28N 35°26' E 139°41'0 0.0
2017-Mar-16 20:31N 35°26' E 139°41'0 0.0
2017-Mar-16 19:31N 35°26' E 139°41'0 0.0
2017-Mar-16 18:31N 35°26' E 139°41'0 0.0
2017-Mar-16 17:31N 35°26' E 139°41'0 0.0
2017-Mar-16 16:31N 35°26' E 139°41'0 0.0
2017-Mar-16 15:31N 35°26' E 139°41'0 0.0
2017-Mar-16 14:31N 35°26' E 139°41'0 0.0
2017-Mar-16 13:31N 35°26' E 139°41'0 0.0
2017-Mar-16 12:31N 35°26' E 139°41'0 0.0
2017-Mar-16 11:31N 35°26' E 139°41'2 2.3
2017-Mar-16 10:33N 35°26' E 139°44'0 0.2
2017-Mar-16 09:32N 35°26' E 139°44'0 0.1
2017-Mar-16 08:32N 35°26' E 139°44'0 0.1
2017-Mar-16 07:32N 35°26' E 139°44'0 0.1
2017-Mar-16 06:32N 35°26' E 139°44'0 0.0
2017-Mar-16 05:32N 35°26' E 139°44'0 0.1
2017-Mar-16 04:29N 35°26' E 139°44'0 0.0
2017-Mar-16 03:32N 35°26' E 139°44'0 0.2
2017-Mar-16 02:33N 35°26' E 139°44'7 6.9
2017-Mar-16 01:33N 35°19' E 139°44'1111.2
2017-Mar-16 00:33N 35°08' E 139°46'9 8.5
2017-Mar-15 23:33N 35°02' E 139°39'0 0.5
2017-Mar-15 22:33N 35°01' E 139°39'0 0.1
2017-Mar-15 21:33N 35°01' E 139°39'8 7.5
2017-Mar-15 20:33N 34°57' E 139°32'1515.1
2017-Mar-15 19:32N 34°47' E 139°17'220 7.0
2017-Mar-14 12:06N 33°53' E 134°59'1119.7
2017-Mar-14 11:33N 34°04' E 134°58'1515.1
2017-Mar-14 10:33N 34°19' E 134°59'1313.1
2017-Mar-14 09:33N 34°29' E 135°10'1111.0
2017-Mar-14 08:33N 34°39' E 135°15'0 0.0
2017-Mar-14 07:09N 34°39' E 135°15'0 0.0
2017-Mar-14 06:33N 34°39' E 135°15'0 0.0
2017-Mar-14 05:33N 34°39' E 135°15'0 0.0
2017-Mar-14 04:33N 34°39' E 135°15'0 0.0
2017-Mar-14 03:25N 34°39' E 135°15'5 5.9
2017-Mar-14 02:33N 34°37' E 135°20'5 0.7
2017-Mar-13 18:33N 34°38' E 135°26'0 0.0
2017-Mar-13 14:09N 34°38' E 135°26'0 0.0
2017-Mar-13 13:27N 34°38' E 135°26'0 0.0
2017-Mar-13 12:33N 34°38' E 135°26'0 0.0
2017-Mar-13 11:33N 34°38' E 135°26'0 0.0
2017-Mar-13 10:33N 34°38' E 135°26'0 0.0
2017-Mar-13 05:15N 34°38' E 135°26'0 0.0
2017-Mar-13 03:15N 34°38' E 135°26'0 0.0
2017-Mar-13 00:33N 34°38' E 135°26'0 0.0
2017-Mar-12 18:21N 34°38' E 135°26'0 0.0
2017-Mar-12 17:33N 34°38' E 135°26'0 0.0
2017-Mar-12 16:27N 34°38' E 135°26'0 0.0
2017-Mar-12 14:15N 34°38' E 135°26'1 1.4
2017-Mar-12 13:33N 34°39' E 135°26'1211.6
2017-Mar-12 12:34N 34°32' E 135°14'1413.8
2017-Mar-12 11:34N 34°22' E 135°03'1313.4
2017-Mar-12 10:34N 34°09' E 134°60'10 9.5
2017-Mar-12 09:33N 33°59' E 134°58'  
2017-Mar-10 03:05N 24°08' E 118°34'1016.8
2017-Mar-10 02:29N 24°01' E 118°26'25915.9
2017-Mar-09 10:14N 22°19' E 114°07'0 0.0
2017-Mar-08 21:32N 22°20' E 114°07'  
Track history (hours):
 
Tides and Currents Weather Stations Pressure Air Temp Water Temp Dewpoint Dewpoint Depression Visibility Wind Speed Wind Dir Waves Ship Positions

Wan Hai 501

Last reported at 2017-Mar-18 13:33 UTC. Time now 2017-Mar-26 03:31 UTC.
Position N 34°44' E 139°33'.

Length 269 m; draft 10.4 m.

Type: Cargo ship. MMSI: 563382000.

Date/timePositionNaut miles runAvg speedWind from/ knotsBaromVisibWave heightAir tempDewpointWater temp
2017-Mar-18 13:33N 34°44' E 139°33'1818.2
2017-Mar-18 12:33N 35°01' E 139°41'1515.0
2017-Mar-18 11:33N 35°16' E 139°46'1211.9
2017-Mar-18 10:33N 35°27' E 139°48'9 8.9
2017-Mar-18 09:33N 35°36' E 139°46'0 0.1
2017-Mar-18 08:28N 35°36' E 139°46'0 0.0
2017-Mar-18 07:28N 35°36' E 139°46'0 0.0
2017-Mar-18 06:31N 35°36' E 139°46'0 0.0
2017-Mar-18 05:31N 35°36' E 139°46'0 0.0
2017-Mar-18 04:31N 35°36' E 139°46'0 0.0
2017-Mar-18 03:31N 35°36' E 139°46'0 0.0
2017-Mar-18 02:31N 35°36' E 139°46'0 0.0
2017-Mar-18 01:31N 35°36' E 139°46'0 0.0
2017-Mar-18 00:31N 35°36' E 139°46'0 0.0
2017-Mar-17 23:31N 35°36' E 139°46'0 0.0
2017-Mar-17 22:28N 35°36' E 139°46'4 4.6
2017-Mar-17 21:33N 35°34' E 139°50'9 9.1
2017-Mar-17 20:33N 35°26' E 139°44'2 2.4
2017-Mar-17 19:31N 35°26' E 139°41'0 0.0
2017-Mar-17 18:31N 35°26' E 139°41'0 0.0
2017-Mar-17 17:31N 35°26' E 139°41'0 0.0
2017-Mar-17 16:31N 35°26' E 139°41'0 0.0
2017-Mar-17 15:31N 35°26' E 139°41'0 0.0
2017-Mar-17 14:31N 35°26' E 139°41'0 0.0
2017-Mar-17 13:31N 35°26' E 139°41'0 0.0
2017-Mar-17 12:31N 35°26' E 139°41'0 0.0
2017-Mar-17 11:31N 35°26' E 139°41'0 0.0
2017-Mar-17 10:31N 35°26' E 139°41'0 0.0
2017-Mar-17 09:31N 35°26' E 139°41'0 0.0
2017-Mar-17 08:31N 35°26' E 139°41'0 0.0
2017-Mar-17 07:31N 35°26' E 139°41'0 0.0
2017-Mar-17 06:31N 35°26' E 139°41'0 0.0
2017-Mar-17 05:31N 35°26' E 139°41'0 0.0
2017-Mar-17 04:31N 35°26' E 139°41'0 0.0
2017-Mar-17 03:31N 35°26' E 139°41'0 0.0
2017-Mar-17 02:31N 35°26' E 139°41'0 0.0
2017-Mar-17 01:31N 35°26' E 139°41'0 0.0
2017-Mar-17 00:31N 35°26' E 139°41'0 0.0
2017-Mar-16 23:31N 35°26' E 139°41'0 0.0
2017-Mar-16 22:31N 35°26' E 139°41'0 0.0
2017-Mar-16 21:28N 35°26' E 139°41'0 0.0
2017-Mar-16 20:31N 35°26' E 139°41'0 0.0
2017-Mar-16 19:31N 35°26' E 139°41'0 0.0
2017-Mar-16 18:31N 35°26' E 139°41'0 0.0
2017-Mar-16 17:31N 35°26' E 139°41'0 0.0
2017-Mar-16 16:31N 35°26' E 139°41'0 0.0
2017-Mar-16 15:31N 35°26' E 139°41'0 0.0
2017-Mar-16 14:31N 35°26' E 139°41'0 0.0
2017-Mar-16 13:31N 35°26' E 139°41'0 0.0
2017-Mar-16 12:31N 35°26' E 139°41'0 0.0
2017-Mar-16 11:31N 35°26' E 139°41'2 2.3
2017-Mar-16 10:33N 35°26' E 139°44'0 0.2
2017-Mar-16 09:32N 35°26' E 139°44'0 0.1
2017-Mar-16 08:32N 35°26' E 139°44'0 0.1
2017-Mar-16 07:32N 35°26' E 139°44'0 0.1
2017-Mar-16 06:32N 35°26' E 139°44'0 0.0
2017-Mar-16 05:32N 35°26' E 139°44'0 0.1
2017-Mar-16 04:29N 35°26' E 139°44'0 0.0
2017-Mar-16 03:32N 35°26' E 139°44'0 0.2
2017-Mar-16 02:33N 35°26' E 139°44'7 6.9
2017-Mar-16 01:33N 35°19' E 139°44'1111.2
2017-Mar-16 00:33N 35°08' E 139°46'9 8.5
2017-Mar-15 23:33N 35°02' E 139°39'0 0.5
2017-Mar-15 22:33N 35°01' E 139°39'0 0.1
2017-Mar-15 21:33N 35°01' E 139°39'8 7.5
2017-Mar-15 20:33N 34°57' E 139°32'1515.1
2017-Mar-15 19:32N 34°47' E 139°17'220 7.0
2017-Mar-14 12:06N 33°53' E 134°59'1119.7
2017-Mar-14 11:33N 34°04' E 134°58'1515.1
2017-Mar-14 10:33N 34°19' E 134°59'1313.1
2017-Mar-14 09:33N 34°29' E 135°10'1111.0
2017-Mar-14 08:33N 34°39' E 135°15'0 0.0
2017-Mar-14 07:09N 34°39' E 135°15'0 0.0
2017-Mar-14 06:33N 34°39' E 135°15'0 0.0
2017-Mar-14 05:33N 34°39' E 135°15'0 0.0
2017-Mar-14 04:33N 34°39' E 135°15'0 0.0
2017-Mar-14 03:25N 34°39' E 135°15'5 5.9
2017-Mar-14 02:33N 34°37' E 135°20'5 0.7
2017-Mar-13 18:33N 34°38' E 135°26'0 0.0
2017-Mar-13 14:09N 34°38' E 135°26'0 0.0
2017-Mar-13 13:27N 34°38' E 135°26'0 0.0
2017-Mar-13 12:33N 34°38' E 135°26'0 0.0
2017-Mar-13 11:33N 34°38' E 135°26'0 0.0
2017-Mar-13 10:33N 34°38' E 135°26'0 0.0
2017-Mar-13 05:15N 34°38' E 135°26'0 0.0
2017-Mar-13 03:15N 34°38' E 135°26'0 0.0
2017-Mar-13 00:33N 34°38' E 135°26'0 0.0
2017-Mar-12 18:21N 34°38' E 135°26'0 0.0
2017-Mar-12 17:33N 34°38' E 135°26'0 0.0
2017-Mar-12 16:27N 34°38' E 135°26'0 0.0
2017-Mar-12 14:15N 34°38' E 135°26'1 1.4
2017-Mar-12 13:33N 34°39' E 135°26'1211.6
2017-Mar-12 12:34N 34°32' E 135°14'1413.8
2017-Mar-12 11:34N 34°22' E 135°03'1313.4
2017-Mar-12 10:34N 34°09' E 134°60'10 9.5
2017-Mar-12 09:33N 33°59' E 134°58'  
2017-Mar-10 03:05N 24°08' E 118°34'1016.8
2017-Mar-10 02:29N 24°01' E 118°26'25915.9
2017-Mar-09 10:14N 22°19' E 114°07'0 0.0
2017-Mar-08 21:32N 22°20' E 114°07'  

Dump ship's entire track history